Time;durP1;ratioP1;P1;durP2;ratioP2;P2;SDS_P1;SDS_P2;PMS_P1;PMS_P2;Temp;Humidity;BMP_temperature;BMP_pressure;BME280_temperature;BME280_humidity;BME280_pressure;Samples;Min_cycle;Max_cycle;Signal;HPM_P1;HPM_P2
2023/01/19 00:02:24;;;;;;;15.25;11.05;;;;;;;;;;5113850;28;20050;-72
2023/01/19 00:04:50;;;;;;;14.10;10.70;;;;;;;;;;5113771;28;20047;-72
2023/01/19 00:07:16;;;;;;;15.55;11.02;;;;;;;;;;5105645;28;20044;-72
2023/01/19 00:09:42;;;;;;;15.32;12.38;;;;;;;;;;5102409;28;20044;-72
2023/01/19 00:12:08;;;;;;;16.25;10.85;;;;;;;;;;5093227;28;20472;-72
2023/01/19 00:14:34;;;;;;;13.50;10.27;;;;;;;;;;5106931;28;20047;-72
2023/01/19 00:17:00;;;;;;;14.43;11.52;;;;;;;;;;5095400;28;20043;-72
2023/01/19 00:19:27;;;;;;;15.95;12.52;;;;;;;;;;5101200;28;20054;-72
2023/01/19 00:21:53;;;;;;;14.65;11.77;;;;;;;;;;5094722;28;20486;-72
2023/01/19 00:24:19;;;;;;;16.23;12.73;;;;;;;;;;5096425;28;20039;-72
2023/01/19 00:26:45;;;;;;;17.90;12.95;;;;;;;;;;5103470;28;20044;-72
2023/01/19 00:29:12;;;;;;;16.33;11.95;;;;;;;;;;5096384;28;20489;-72
2023/01/19 00:31:38;;;;;;;17.55;12.63;;;;;;;;;;5102085;28;20036;-72
2023/01/19 00:34:05;;;;;;;17.55;13.05;;;;;;;;;;5092371;28;20044;-72
2023/01/19 00:36:32;;;;;;;16.35;12.18;;;;;;;;;;5103337;28;20108;-72
2023/01/19 00:38:58;;;;;;;15.55;11.85;;;;;;;;;;5100604;28;20040;-72
2023/01/19 00:44:09;;;;;;;14.45;11.15;;;;;;;;;;5100448;28;20506;-73
2023/01/19 00:46:35;;;;;;;13.80;10.43;;;;;;;;;;5110194;28;20035;-72
2023/01/19 00:49:01;;;;;;;15.05;10.30;;;;;;;;;;5116971;27;20066;-72
2023/01/19 00:51:27;;;;;;;13.13;9.73;;;;;;;;;;5110905;28;20048;-72
2023/01/19 00:53:53;;;;;;;12.52;9.75;;;;;;;;;;5107468;28;20040;-73
2023/01/19 00:56:19;;;;;;;12.73;9.95;;;;;;;;;;5097463;28;20055;-73
2023/01/19 00:58:45;;;;;;;12.05;9.23;;;;;;;;;;5105952;28;20047;-72
2023/01/19 01:01:12;;;;;;;12.98;9.18;;;;;;;;;;5111140;28;20464;-73
2023/01/19 01:03:38;;;;;;;12.07;9.38;;;;;;;;;;5104709;28;20055;-72
2023/01/19 01:06:07;;;;;;;10.63;8.18;;;;;;;;;;5092280;28;20382;-72
2023/01/19 01:08:33;;;;;;;11.00;7.32;;;;;;;;;;5105547;28;20054;-72
2023/01/19 01:10:59;;;;;;;9.25;7.13;;;;;;;;;;5102211;28;20040;-72
2023/01/19 01:13:26;;;;;;;7.75;5.70;;;;;;;;;;5095432;28;20044;-72
2023/01/19 01:15:53;;;;;;;7.63;5.95;;;;;;;;;;5111905;28;20523;-71
2023/01/19 01:18:19;;;;;;;9.02;5.95;;;;;;;;;;5108909;28;20374;-72
2023/01/19 01:20:45;;;;;;;7.13;5.22;;;;;;;;;;5111426;28;20043;-72
2023/01/19 01:23:12;;;;;;;7.80;5.35;;;;;;;;;;5101774;28;20101;-72
2023/01/19 01:25:38;;;;;;;9.07;5.38;;;;;;;;;;5094922;28;20051;-72
2023/01/19 01:28:07;;;;;;;8.43;5.85;;;;;;;;;;5114520;28;20048;-72
2023/01/19 01:30:39;;;;;;;8.18;5.72;;;;;;;;;;5107536;28;20043;-72
2023/01/19 01:33:06;;;;;;;8.75;6.22;;;;;;;;;;5097340;28;20044;-72
2023/01/19 01:35:32;;;;;;;8.20;6.90;;;;;;;;;;5100342;28;20464;-72
2023/01/19 01:37:59;;;;;;;9.38;7.30;;;;;;;;;;5112049;28;20089;-72
2023/01/19 01:40:25;;;;;;;10.77;8.32;;;;;;;;;;5112294;28;20059;-72
2023/01/19 01:42:51;;;;;;;10.10;8.35;;;;;;;;;;5112658;28;20050;-73
2023/01/19 01:45:37;;;;;;;9.88;8.20;;;;;;;;;;5101109;28;20035;-72
2023/01/19 01:48:07;;;;;;;10.05;8.60;;;;;;;;;;5125799;27;20044;-72
2023/01/19 01:50:34;;;;;;;11.73;9.07;;;;;;;;;;5115171;28;20052;-72
2023/01/19 01:53:13;;;;;;;12.20;10.57;;;;;;;;;;5116299;28;20082;-72
2023/01/19 01:55:47;;;;;;;11.57;10.27;;;;;;;;;;5096089;28;20035;-72
2023/01/19 01:58:14;;;;;;;13.20;10.85;;;;;;;;;;5116456;28;20043;-72
2023/01/19 02:03:26;;;;;;;13.38;11.07;;;;;;;;;;5116341;27;20039;-73
2023/01/19 02:05:56;;;;;;;12.25;10.52;;;;;;;;;;5113315;28;20035;-72
2023/01/19 02:13:52;;;;;;;13.43;11.82;;;;;;;;;;5111207;27;20043;-73
2023/01/19 02:16:18;;;;;;;14.43;11.63;;;;;;;;;;5100048;28;20383;-72
2023/01/19 02:18:45;;;;;;;14.00;12.18;;;;;;;;;;5107547;28;20044;-72
2023/01/19 02:21:21;;;;;;;13.48;11.90;;;;;;;;;;5103358;28;20048;-73
2023/01/19 02:23:51;;;;;;;14.48;11.95;;;;;;;;;;5097947;28;20490;-72
2023/01/19 02:26:20;;;;;;;13.70;11.80;;;;;;;;;;5105134;28;20048;-72
2023/01/19 02:28:49;;;;;;;16.00;13.40;;;;;;;;;;5097637;28;20043;-72
2023/01/19 02:31:16;;;;;;;15.90;13.90;;;;;;;;;;5111606;27;20040;-72
2023/01/19 02:33:42;;;;;;;14.88;13.27;;;;;;;;;;5102253;28;20051;-72
2023/01/19 02:36:10;;;;;;;16.52;14.27;;;;;;;;;;5096440;28;20049;-72
2023/01/19 02:38:37;;;;;;;14.60;12.93;;;;;;;;;;5106550;28;20035;-72
2023/01/19 02:41:04;;;;;;;17.88;15.70;;;;;;;;;;5111702;28;20048;-72
2023/01/19 02:43:30;;;;;;;16.45;14.40;;;;;;;;;;5113842;28;20059;-72
2023/01/19 02:45:57;;;;;;;18.25;14.77;;;;;;;;;;5113666;27;20173;-72
2023/01/19 02:48:23;;;;;;;20.50;17.17;;;;;;;;;;5095663;28;20391;-72
2023/01/19 02:50:51;;;;;;;18.25;15.13;;;;;;;;;;5111159;27;20043;-72
2023/01/19 02:53:21;;;;;;;20.63;17.05;;;;;;;;;;5094642;28;20051;-72
2023/01/19 02:56:07;;;;;;;18.85;16.23;;;;;;;;;;5100664;28;20043;-72
2023/01/19 02:58:35;;;;;;;23.70;17.58;;;;;;;;;;5090960;28;20043;-73
2023/01/19 03:01:33;;;;;;;19.55;17.27;;;;;;;;;;5101993;28;20036;-73
2023/01/19 03:04:20;;;;;;;17.65;15.48;;;;;;;;;;5102200;28;20048;-71
2023/01/19 03:06:52;;;;;;;18.55;15.18;;;;;;;;;;5071668;28;20048;-75
2023/01/19 03:09:27;;;;;;;18.63;14.43;;;;;;;;;;5111104;28;20045;-76
2023/01/19 03:11:59;;;;;;;18.77;16.00;;;;;;;;;;5111952;28;20039;-73
2023/01/19 03:14:25;;;;;;;;;;;;;;;;;;5111937;28;20051;-71
2023/01/19 03:16:54;;;;;;;19.30;15.23;;;;;;;;;;5102028;27;19928;-75
2023/01/19 03:19:28;;;;;;;17.17;14.18;;;;;;;;;;5112056;28;20063;-72
2023/01/19 03:21:57;;;;;;;17.65;15.45;;;;;;;;;;5111377;28;20046;-72
2023/01/19 03:24:24;;;;;;;18.30;15.43;;;;;;;;;;5111302;28;20157;-70
2023/01/19 03:26:57;;;;;;;17.92;15.80;;;;;;;;;;5110102;28;20055;-73
2023/01/19 03:29:24;;;;;;;18.08;15.73;;;;;;;;;;5110857;28;20131;-73
2023/01/19 03:31:51;;;;;;;22.05;17.10;;;;;;;;;;5110210;28;20147;-73
2023/01/19 03:34:21;;;;;;;20.98;17.23;;;;;;;;;;5111910;28;20044;-72
2023/01/19 03:36:52;;;;;;;23.10;18.00;;;;;;;;;;5109766;28;20032;-72
2023/01/19 03:39:23;;;;;;;20.00;16.75;;;;;;;;;;5108285;28;20056;-72
2023/01/19 03:41:52;;;;;;;21.88;19.10;;;;;;;;;;5109389;28;20040;-72
2023/01/19 03:44:18;;;;;;;23.15;18.38;;;;;;;;;;5105690;28;20516;-72
2023/01/19 03:46:45;;;;;;;23.45;18.90;;;;;;;;;;5107511;28;20043;-73
2023/01/19 03:49:12;;;;;;;22.45;18.60;;;;;;;;;;5100533;28;20036;-72
2023/01/19 03:51:38;;;;;;;26.20;21.40;;;;;;;;;;5093211;28;21036;-73
2023/01/19 03:54:05;;;;;;;23.35;19.48;;;;;;;;;;5098792;28;20126;-73
2023/01/19 03:56:31;;;;;;;21.83;18.35;;;;;;;;;;5107098;27;20048;-72
2023/01/19 03:58:58;;;;;;;22.27;18.33;;;;;;;;;;5112408;28;20494;-72
2023/01/19 04:01:24;;;;;;;19.80;16.40;;;;;;;;;;5103616;28;20463;-72
2023/01/19 04:03:51;;;;;;;19.05;16.80;;;;;;;;;;5107829;28;20062;-73
2023/01/19 04:06:18;;;;;;;21.05;17.85;;;;;;;;;;5099325;28;20050;-72
2023/01/19 04:08:44;;;;;;;24.15;18.10;;;;;;;;;;5114088;28;20048;-72
2023/01/19 04:11:10;;;;;;;19.80;16.23;;;;;;;;;;5100732;28;20051;-72
2023/01/19 04:13:36;;;;;;;21.83;17.20;;;;;;;;;;5093203;28;20102;-72
2023/01/19 04:16:03;;;;;;;17.77;15.43;;;;;;;;;;5098138;27;20048;-73
2023/01/19 04:18:30;;;;;;;19.05;15.05;;;;;;;;;;5105635;28;20067;-72
2023/01/19 04:21:00;;;;;;;18.05;14.68;;;;;;;;;;5107247;28;20051;-72
2023/01/19 04:23:27;;;;;;;17.17;14.18;;;;;;;;;;5108448;28;20039;-73
2023/01/19 04:26:00;;;;;;;15.88;13.93;;;;;;;;;;5114017;27;20424;-72
2023/01/19 04:28:26;;;;;;;15.85;13.55;;;;;;;;;;5092583;28;20036;-72
2023/01/19 04:30:53;;;;;;;15.85;13.00;;;;;;;;;;5098812;28;20044;-73
2023/01/19 04:33:19;;;;;;;15.55;13.38;;;;;;;;;;5102011;28;20036;-72
2023/01/19 04:35:46;;;;;;;14.50;12.15;;;;;;;;;;5093668;28;20054;-73
2023/01/19 04:38:12;;;;;;;14.65;11.95;;;;;;;;;;5096740;28;20035;-73
2023/01/19 04:40:38;;;;;;;14.85;12.38;;;;;;;;;;5101610;28;20052;-72
2023/01/19 04:43:04;;;;;;;14.82;12.77;;;;;;;;;;5103207;28;20048;-72
2023/01/19 04:45:30;;;;;;;14.90;11.75;;;;;;;;;;5095026;28;20051;-72
2023/01/19 04:47:56;;;;;;;14.45;11.75;;;;;;;;;;5107131;28;20043;-71
2023/01/19 04:50:22;;;;;;;15.00;12.75;;;;;;;;;;5109802;28;20416;-72
2023/01/19 04:52:48;;;;;;;13.88;12.40;;;;;;;;;;5096727;28;20052;-72
2023/01/19 04:55:15;;;;;;;14.35;11.20;;;;;;;;;;5106834;28;20044;-72
2023/01/19 04:57:41;;;;;;;13.88;11.30;;;;;;;;;;5111547;28;20127;-72
2023/01/19 05:00:08;;;;;;;14.25;11.30;;;;;;;;;;5106815;28;20075;-72
2023/01/19 05:02:34;;;;;;;14.95;11.80;;;;;;;;;;5100307;27;20036;-72
2023/01/19 05:05:00;;;;;;;13.80;11.32;;;;;;;;;;5108182;28;20118;-72
2023/01/19 05:07:26;;;;;;;14.20;11.27;;;;;;;;;;5112343;28;20040;-73
2023/01/19 05:09:53;;;;;;;14.38;11.05;;;;;;;;;;5106884;28;20035;-73
2023/01/19 05:12:19;;;;;;;13.55;11.05;;;;;;;;;;5093997;28;20051;-73
2023/01/19 05:14:45;;;;;;;14.18;10.98;;;;;;;;;;5112015;28;20047;-72
2023/01/19 05:17:11;;;;;;;14.00;10.52;;;;;;;;;;5095793;28;20050;-72
2023/01/19 05:19:37;;;;;;;12.85;9.35;;;;;;;;;;5093426;28;20497;-72
2023/01/19 05:22:04;;;;;;;11.57;9.30;;;;;;;;;;5103896;28;20040;-72
2023/01/19 05:24:30;;;;;;;12.35;9.45;;;;;;;;;;5105939;28;20101;-72
2023/01/19 05:26:56;;;;;;;12.95;9.00;;;;;;;;;;5105629;28;20040;-72
2023/01/19 05:29:23;;;;;;;12.05;8.88;;;;;;;;;;5092518;28;20120;-72
2023/01/19 05:31:49;;;;;;;13.48;8.90;;;;;;;;;;5097881;28;20044;-73
2023/01/19 05:34:15;;;;;;;11.70;8.60;;;;;;;;;;5102474;28;20036;-71
2023/01/19 05:36:41;;;;;;;10.52;7.38;;;;;;;;;;5107073;28;20059;-72
2023/01/19 05:39:07;;;;;;;11.40;7.35;;;;;;;;;;5099914;28;20092;-72
2023/01/19 05:41:34;;;;;;;12.00;7.43;;;;;;;;;;5103455;28;20097;-72
2023/01/19 05:44:00;;;;;;;9.98;6.28;;;;;;;;;;5098164;28;20032;-72
2023/01/19 05:46:26;;;;;;;11.10;6.65;;;;;;;;;;5106586;28;20055;-72
2023/01/19 05:48:52;;;;;;;10.77;6.25;;;;;;;;;;5104997;28;20126;-72
2023/01/19 05:51:18;;;;;;;9.85;6.40;;;;;;;;;;5111048;28;20036;-73
2023/01/19 05:53:44;;;;;;;9.25;6.03;;;;;;;;;;5107610;28;20040;-73
2023/01/19 05:56:10;;;;;;;10.02;5.97;;;;;;;;;;5125708;27;20047;-72
2023/01/19 05:58:40;;;;;;;10.43;6.78;;;;;;;;;;5136813;27;20044;-72
2023/01/19 06:01:07;;;;;;;10.05;6.40;;;;;;;;;;5111050;27;20474;-72
2023/01/19 06:03:34;;;;;;;8.88;5.93;;;;;;;;;;5114506;28;20112;-73
2023/01/19 06:06:00;;;;;;;10.98;6.40;;;;;;;;;;5099138;27;20047;-72
2023/01/19 06:08:26;;;;;;;11.82;5.82;;;;;;;;;;5115281;28;20044;-73
2023/01/19 06:10:52;;;;;;;9.02;4.88;;;;;;;;;;5105284;28;20097;-72
2023/01/19 06:13:18;;;;;;;10.77;5.18;;;;;;;;;;5096358;28;20036;-72
2023/01/19 06:15:44;;;;;;;9.48;5.05;;;;;;;;;;5094848;28;20093;-73
2023/01/19 06:18:11;;;;;;;9.85;4.78;;;;;;;;;;5100974;28;20093;-72
2023/01/19 06:20:37;;;;;;;12.27;4.88;;;;;;;;;;5095066;28;20482;-73
2023/01/19 06:23:03;;;;;;;8.90;4.63;;;;;;;;;;5120812;27;20047;-72
2023/01/19 06:25:30;;;;;;;9.95;4.47;;;;;;;;;;5101901;28;20410;-72
2023/01/19 06:27:56;;;;;;;9.20;4.75;;;;;;;;;;5095213;28;20105;-72
2023/01/19 06:30:22;;;;;;;14.00;4.65;;;;;;;;;;5110994;28;20048;-72
2023/01/19 06:32:48;;;;;;;7.30;4.22;;;;;;;;;;5107437;28;20401;-73
2023/01/19 06:35:14;;;;;;;8.50;3.50;;;;;;;;;;5101646;28;20046;-72
2023/01/19 06:37:40;;;;;;;8.18;3.60;;;;;;;;;;5101300;28;20435;-72
2023/01/19 06:40:07;;;;;;;9.07;3.42;;;;;;;;;;5090725;28;20448;-72
2023/01/19 06:42:33;;;;;;;5.60;3.00;;;;;;;;;;5098109;28;20043;-72
2023/01/19 06:44:59;;;;;;;8.93;2.95;;;;;;;;;;5109326;28;20071;-73
2023/01/19 06:47:25;;;;;;;9.02;2.47;;;;;;;;;;5110372;28;20466;-72
2023/01/19 06:49:51;;;;;;;11.23;2.90;;;;;;;;;;5113286;28;20052;-73
2023/01/19 06:52:19;;;;;;;9.25;2.38;;;;;;;;;;5099779;28;20051;-72
2023/01/19 06:54:45;;;;;;;12.85;3.08;;;;;;;;;;5105931;28;20040;-72
2023/01/19 06:57:12;;;;;;;8.77;2.20;;;;;;;;;;5099747;28;20127;-72
2023/01/19 06:59:38;;;;;;;8.15;2.10;;;;;;;;;;5110310;28;20042;-72
2023/01/19 07:02:04;;;;;;;6.28;2.13;;;;;;;;;;5111099;27;20041;-72
2023/01/19 07:04:30;;;;;;;9.25;2.60;;;;;;;;;;5099838;27;20066;-73
2023/01/19 07:06:56;;;;;;;7.28;2.10;;;;;;;;;;5117984;27;20036;-72
2023/01/19 07:09:24;;;;;;;11.07;2.80;;;;;;;;;;5101027;28;20509;-72
2023/01/19 07:11:50;;;;;;;6.65;1.75;;;;;;;;;;5102343;28;20045;-73
2023/01/19 07:14:16;;;;;;;8.82;1.95;;;;;;;;;;5112060;28;20096;-72
2023/01/19 07:16:42;;;;;;;8.48;1.88;;;;;;;;;;5110538;28;20105;-72
2023/01/19 07:19:13;;;;;;;7.28;1.80;;;;;;;;;;5099708;28;20082;-72
2023/01/19 07:21:39;;;;;;;4.93;1.42;;;;;;;;;;5110588;28;20489;-72
2023/01/19 07:24:05;;;;;;;9.55;1.38;;;;;;;;;;5104952;28;20101;-72
2023/01/19 07:26:31;;;;;;;7.22;1.63;;;;;;;;;;5101064;28;20513;-72
2023/01/19 07:28:57;;;;;;;11.18;1.88;;;;;;;;;;5102042;28;20040;-72
2023/01/19 07:31:23;;;;;;;10.60;1.75;;;;;;;;;;5105240;28;20044;-72
2023/01/19 07:33:49;;;;;;;10.52;1.48;;;;;;;;;;5112232;28;20043;-72
2023/01/19 07:36:15;;;;;;;9.18;1.90;;;;;;;;;;5105703;27;20040;-72
2023/01/19 07:38:41;;;;;;;14.90;1.55;;;;;;;;;;5112489;28;20082;-72
2023/01/19 07:41:08;;;;;;;15.30;1.50;;;;;;;;;;5113871;28;20051;-73
2023/01/19 07:43:35;;;;;;;8.43;1.50;;;;;;;;;;5111635;28;20043;-73
2023/01/19 07:46:02;;;;;;;9.73;1.13;;;;;;;;;;5101553;28;20039;-72
2023/01/19 07:48:28;;;;;;;8.38;1.67;;;;;;;;;;5093037;28;20044;-72
2023/01/19 07:51:04;;;;;;;11.63;1.23;;;;;;;;;;5092680;28;20509;-72
2023/01/19 07:53:31;;;;;;;13.77;1.70;;;;;;;;;;5096564;28;20406;-72
2023/01/19 07:55:57;;;;;;;7.85;1.30;;;;;;;;;;5103742;28;20040;-73
2023/01/19 07:58:25;;;;;;;6.45;1.23;;;;;;;;;;5110211;28;20473;-73
2023/01/19 08:00:51;;;;;;;7.50;1.10;;;;;;;;;;5113218;28;20413;-73
2023/01/19 08:03:17;;;;;;;11.60;1.60;;;;;;;;;;5113195;28;20047;-73
2023/01/19 08:05:44;;;;;;;10.48;1.55;;;;;;;;;;5112254;28;20069;-73
2023/01/19 08:08:11;;;;;;;9.85;1.17;;;;;;;;;;5095131;28;20569;-73
2023/01/19 08:10:37;;;;;;;11.30;1.42;;;;;;;;;;5108419;28;20048;-73
2023/01/19 08:13:03;;;;;;;10.05;1.60;;;;;;;;;;5113245;27;20058;-73
2023/01/19 08:15:29;;;;;;;11.00;1.30;;;;;;;;;;5133202;27;20043;-73
2023/01/19 08:18:00;;;;;;;12.60;1.38;;;;;;;;;;5117471;27;20047;-73
2023/01/19 08:20:26;;;;;;;13.50;1.38;;;;;;;;;;5092420;28;20052;-73
2023/01/19 08:22:59;;;;;;;11.70;1.23;;;;;;;;;;5109502;28;20047;-73
2023/01/19 08:25:46;;;;;;;9.23;1.88;;;;;;;;;;5111621;28;20047;-73
2023/01/19 08:28:15;;;;;;;12.00;1.98;;;;;;;;;;5118673;27;20071;-73
2023/01/19 08:30:44;;;;;;;15.48;1.83;;;;;;;;;;5129411;27;20043;-73
2023/01/19 08:33:11;;;;;;;14.57;1.80;;;;;;;;;;5110921;28;20054;-73
2023/01/19 08:35:38;;;;;;;15.68;1.70;;;;;;;;;;5108404;28;20063;-73
2023/01/19 08:38:05;;;;;;;18.15;2.45;;;;;;;;;;5096570;27;20047;-73
2023/01/19 08:40:35;;;;;;;16.35;2.15;;;;;;;;;;5096380;28;20081;-75
2023/01/19 08:43:05;;;;;;;11.35;1.73;;;;;;;;;;5111629;27;20097;-74
2023/01/19 08:45:31;;;;;;;18.60;2.20;;;;;;;;;;5112122;28;20075;-73
2023/01/19 08:47:58;;;;;;;13.13;1.67;;;;;;;;;;5112401;28;20036;-72
2023/01/19 08:50:31;;;;;;;14.68;1.95;;;;;;;;;;5112719;28;20505;-73
2023/01/19 08:52:57;;;;;;;18.67;2.22;;;;;;;;;;5111200;28;20451;-73
2023/01/19 08:55:24;;;;;;;16.38;1.98;;;;;;;;;;5112393;28;20050;-73
2023/01/19 08:57:51;;;;;;;13.65;2.00;;;;;;;;;;5110253;28;20031;-73
2023/01/19 09:00:17;;;;;;;18.75;1.90;;;;;;;;;;5126056;28;20070;-73
2023/01/19 09:02:44;;;;;;;14.10;2.00;;;;;;;;;;5128638;27;20094;-73
2023/01/19 09:05:10;;;;;;;10.90;1.60;;;;;;;;;;5111543;27;20055;-73
2023/01/19 09:07:36;;;;;;;15.32;1.98;;;;;;;;;;5113070;28;20409;-72
2023/01/19 09:10:03;;;;;;;17.05;1.92;;;;;;;;;;5111834;28;20044;-72
2023/01/19 09:12:29;;;;;;;9.80;1.58;;;;;;;;;;5112168;28;20044;-72
2023/01/19 09:14:55;;;;;;;15.15;2.25;;;;;;;;;;5085613;28;20036;-72
2023/01/19 09:17:21;;;;;;;15.20;2.80;;;;;;;;;;5095622;28;20108;-72
2023/01/19 09:19:47;;;;;;;20.70;2.60;;;;;;;;;;5112237;28;20043;-74
2023/01/19 09:22:13;;;;;;;12.98;2.90;;;;;;;;;;5112451;28;20534;-73
2023/01/19 09:24:39;;;;;;;11.73;2.28;;;;;;;;;;5109623;28;20105;-72
2023/01/19 09:27:05;;;;;;;16.08;2.53;;;;;;;;;;5103415;28;20040;-72
2023/01/19 09:29:31;;;;;;;20.42;2.83;;;;;;;;;;5095818;28;20063;-72
2023/01/19 09:31:58;;;;;;;14.10;2.22;;;;;;;;;;5096645;28;20474;-72
2023/01/19 09:34:27;;;;;;;12.95;2.20;;;;;;;;;;5095540;28;20040;-76
2023/01/19 09:36:53;;;;;;;14.90;2.10;;;;;;;;;;5112387;28;20406;-72
2023/01/19 09:39:19;;;;;;;15.50;2.13;;;;;;;;;;5116005;28;20146;-72
2023/01/19 09:41:48;;;;;;;11.93;2.15;;;;;;;;;;5112698;28;20460;-72
2023/01/19 09:44:21;;;;;;;15.88;2.40;;;;;;;;;;5114248;27;20040;-72
2023/01/19 09:46:47;;;;;;;18.38;2.25;;;;;;;;;;5115673;28;20043;-73
2023/01/19 09:49:24;;;;;;;18.08;2.85;;;;;;;;;;5108122;27;20047;-73
2023/01/19 09:51:50;;;;;;;21.58;2.47;;;;;;;;;;5113298;28;20072;-72
2023/01/19 09:54:16;;;;;;;18.50;2.20;;;;;;;;;;5114275;28;20558;-73
2023/01/19 09:56:44;;;;;;;14.20;2.20;;;;;;;;;;5111841;28;20048;-72
2023/01/19 09:59:28;;;;;;;22.08;2.72;;;;;;;;;;5112796;28;20044;-72
2023/01/19 10:02:06;;;;;;;17.83;2.40;;;;;;;;;;5115528;28;20040;-72
2023/01/19 10:04:51;;;;;;;17.08;2.75;;;;;;;;;;5113646;27;20051;-72
2023/01/19 10:07:36;;;;;;;22.92;3.17;;;;;;;;;;5110945;28;20566;-72
2023/01/19 10:10:19;;;;;;;16.70;2.40;;;;;;;;;;5107274;28;20034;-73
2023/01/19 10:12:56;;;;;;;20.33;3.05;;;;;;;;;;5110546;28;20554;-71
2023/01/19 10:15:23;;;;;;;15.15;2.20;;;;;;;;;;5104084;27;20350;-72
2023/01/19 10:17:49;;;;;;;21.85;2.50;;;;;;;;;;5103497;28;20044;-73
2023/01/19 10:20:29;;;;;;;18.67;2.83;;;;;;;;;;5083476;28;20089;-73
2023/01/19 10:22:56;;;;;;;19.35;2.03;;;;;;;;;;5121593;27;20104;-74
2023/01/19 10:25:23;;;;;;;15.75;2.45;;;;;;;;;;5108868;28;20044;-73
2023/01/19 10:27:49;;;;;;;20.67;2.60;;;;;;;;;;5094485;27;20081;-72
2023/01/19 10:30:22;;;;;;;18.92;2.42;;;;;;;;;;5107087;27;20123;-73
2023/01/19 10:32:48;;;;;;;21.83;2.50;;;;;;;;;;5094462;27;20044;-73
2023/01/19 10:35:25;;;;;;;18.20;2.65;;;;;;;;;;5104137;28;20076;-72
2023/01/19 10:37:52;;;;;;;18.48;2.25;;;;;;;;;;5094869;28;20069;-72
2023/01/19 10:40:31;;;;;;;19.48;2.60;;;;;;;;;;5097914;27;20040;-72
2023/01/19 10:42:57;;;;;;;14.10;2.53;;;;;;;;;;5104916;28;20093;-72
2023/01/19 10:45:25;;;;;;;18.85;2.47;;;;;;;;;;5104387;28;20052;-73
2023/01/19 10:47:52;;;;;;;21.65;2.80;;;;;;;;;;5100149;28;20044;-72
2023/01/19 10:50:18;;;;;;;20.42;2.17;;;;;;;;;;5103073;28;20039;-71
2023/01/19 10:52:49;;;;;;;14.55;1.90;;;;;;;;;;5100001;28;20044;-72
2023/01/19 10:55:26;;;;;;;16.05;2.40;;;;;;;;;;5098326;28;20048;-76
2023/01/19 10:57:52;;;;;;;16.75;2.08;;;;;;;;;;5097253;28;20054;-74
2023/01/19 11:00:36;;;;;;;19.08;2.30;;;;;;;;;;5114206;28;20079;-77
2023/01/19 11:03:03;;;;;;;20.08;2.17;;;;;;;;;;5114346;27;20048;-74
2023/01/19 11:05:30;;;;;;;20.20;2.67;;;;;;;;;;5111381;27;20415;-73
2023/01/19 11:07:56;;;;;;;15.32;1.92;;;;;;;;;;5113602;28;20193;-74
2023/01/19 11:10:24;;;;;;;13.30;1.85;;;;;;;;;;5114207;28;20048;-75
2023/01/19 11:12:53;;;;;;;16.48;1.98;;;;;;;;;;5114393;28;20052;-73
2023/01/19 11:15:24;;;;;;;15.30;2.28;;;;;;;;;;5095325;28;20048;-74
2023/01/19 11:17:52;;;;;;;15.23;2.15;;;;;;;;;;5098090;28;20488;-79
2023/01/19 11:20:29;;;;;;;18.33;1.77;;;;;;;;;;5110447;27;20039;-74
2023/01/19 11:23:05;;;;;;;12.45;1.52;;;;;;;;;;5104850;28;20123;-74
2023/01/19 11:25:33;;;;;;;17.25;2.05;;;;;;;;;;5111943;27;20043;-74
2023/01/19 11:27:59;;;;;;;15.38;1.80;;;;;;;;;;5112848;28;20522;-74
2023/01/19 11:30:26;;;;;;;17.50;2.13;;;;;;;;;;5104934;27;20051;-73
2023/01/19 11:32:53;;;;;;;21.20;2.40;;;;;;;;;;5108383;27;20092;-74
2023/01/19 11:35:28;;;;;;;13.63;2.10;;;;;;;;;;5103665;27;20043;-74
2023/01/19 11:38:04;;;;;;;18.00;1.70;;;;;;;;;;5106215;27;20039;-74
2023/01/19 11:40:31;;;;;;;13.50;2.10;;;;;;;;;;5133643;27;20066;-74
2023/01/19 11:42:57;;;;;;;14.40;1.65;;;;;;;;;;5105820;27;20047;-74
2023/01/19 11:45:23;;;;;;;13.85;1.90;;;;;;;;;;5112840;28;20346;-75
2023/01/19 11:47:51;;;;;;;15.40;1.58;;;;;;;;;;5101229;28;20125;-75
2023/01/19 11:50:29;;;;;;;13.80;2.13;;;;;;;;;;5104080;28;20055;-75
2023/01/19 11:52:59;;;;;;;13.35;1.98;;;;;;;;;;5092774;28;20048;-75
2023/01/19 11:55:36;;;;;;;13.35;1.90;;;;;;;;;;5107906;28;20100;-74
2023/01/19 11:58:02;;;;;;;15.57;2.10;;;;;;;;;;5106187;28;20119;-73
2023/01/19 12:00:28;;;;;;;12.30;1.70;;;;;;;;;;5096544;28;20386;-76
2023/01/19 12:02:58;;;;;;;17.00;1.88;;;;;;;;;;5102016;28;20056;-75
2023/01/19 12:05:26;;;;;;;10.35;1.60;;;;;;;;;;5092375;28;20446;-75
2023/01/19 12:07:53;;;;;;;15.30;1.80;;;;;;;;;;5104446;27;20043;-79
2023/01/19 12:10:25;;;;;;;12.52;1.60;;;;;;;;;;5117284;28;20046;-76
2023/01/19 12:12:52;;;;;;;13.63;1.80;;;;;;;;;;5103313;27;20126;-75
2023/01/19 12:15:21;;;;;;;17.70;1.92;;;;;;;;;;5114905;27;20099;-77
2023/01/19 12:17:52;;;;;;;8.88;1.95;;;;;;;;;;5104430;28;20071;-78
2023/01/19 12:20:26;;;;;;;11.98;1.50;;;;;;;;;;5103629;28;20044;-78
2023/01/19 12:23:00;;;;;;;13.50;1.92;;;;;;;;;;5114092;28;20512;-78
2023/01/19 12:25:50;;;;;;;10.65;1.27;;;;;;;;;;5095311;28;20040;-75
2023/01/19 12:28:18;;;;;;;10.73;1.45;;;;;;;;;;5109441;28;20082;-78
2023/01/19 12:30:44;;;;;;;11.50;1.80;;;;;;;;;;5112669;28;20142;-77
2023/01/19 12:33:20;;;;;;;10.48;1.23;;;;;;;;;;5106547;28;20032;-74
2023/01/19 12:35:59;;;;;;;11.85;2.75;;;;;;;;;;5101878;28;20055;-73
2023/01/19 12:38:37;;;;;;;13.90;2.10;;;;;;;;;;5103953;28;20402;-78
2023/01/19 12:41:20;;;;;;;10.73;1.60;;;;;;;;;;5107259;28;20048;-79
2023/01/19 12:43:47;;;;;;;12.48;1.70;;;;;;;;;;5110664;28;20055;-76
2023/01/19 12:46:29;;;;;;;11.05;1.45;;;;;;;;;;5111420;28;20108;-73
2023/01/19 12:49:03;;;;;;;9.80;1.45;;;;;;;;;;5107858;28;20040;-75
2023/01/19 12:51:29;;;;;;;13.82;1.92;;;;;;;;;;5103548;28;20076;-73
2023/01/19 12:54:00;;;;;;;8.32;1.48;;;;;;;;;;5092171;28;20044;-77
2023/01/19 12:56:30;;;;;;;9.57;1.50;;;;;;;;;;5094615;28;20051;-77
2023/01/19 12:58:56;;;;;;;13.35;1.45;;;;;;;;;;5093445;28;20070;-75
2023/01/19 13:01:23;;;;;;;11.07;1.80;;;;;;;;;;5108004;27;20097;-77
2023/01/19 13:04:02;;;;;;;10.68;1.20;;;;;;;;;;5112650;28;20098;-75
2023/01/19 13:06:49;;;;;;;12.38;1.60;;;;;;;;;;5115411;28;20044;-77
2023/01/19 13:09:30;;;;;;;11.00;1.60;;;;;;;;;;5116812;28;20039;-77
2023/01/19 13:12:16;;;;;;;11.63;1.65;;;;;;;;;;5115909;28;20047;-75
2023/01/19 13:14:43;;;;;;;10.50;1.38;;;;;;;;;;5094428;28;20056;-75
2023/01/19 13:17:24;;;;;;;13.48;1.70;;;;;;;;;;5095646;28;20044;-74
2023/01/19 13:19:53;;;;;;;9.27;1.63;;;;;;;;;;5104151;28;20043;-73
2023/01/19 13:22:38;;;;;;;15.48;2.05;;;;;;;;;;5095496;28;20052;-74
2023/01/19 13:25:10;;;;;;;11.75;1.27;;;;;;;;;;5113428;28;20040;-73
2023/01/19 13:27:37;;;;;;;14.57;2.17;;;;;;;;;;5100609;28;20048;-72
2023/01/19 13:30:09;;;;;;;12.98;1.88;;;;;;;;;;5111323;27;20044;-73
2023/01/19 13:32:35;;;;;;;20.23;2.53;;;;;;;;;;5104591;28;20059;-74
2023/01/19 13:35:01;;;;;;;9.68;1.80;;;;;;;;;;5103055;27;20036;-73
2023/01/19 13:37:34;;;;;;;13.30;1.95;;;;;;;;;;5099666;28;20055;-74
2023/01/19 13:40:01;;;;;;;15.73;2.10;;;;;;;;;;5103262;28;20036;-75
2023/01/19 13:42:33;;;;;;;23.98;2.33;;;;;;;;;;5115956;28;20059;-79
2023/01/19 13:45:01;;;;;;;8.43;1.35;;;;;;;;;;5112496;28;20051;-77
2023/01/19 13:47:38;;;;;;;14.25;2.00;;;;;;;;;;5112984;27;20044;-75
2023/01/19 13:50:04;;;;;;;14.27;1.60;;;;;;;;;;5116357;28;20051;-76
2023/01/19 13:52:30;;;;;;;17.27;2.00;;;;;;;;;;5105465;27;20052;-74
2023/01/19 13:54:56;;;;;;;10.18;1.77;;;;;;;;;;5106989;27;20051;-79
2023/01/19 13:57:23;;;;;;;13.25;1.67;;;;;;;;;;5096779;28;20052;-74
2023/01/19 14:00:04;;;;;;;15.07;1.95;;;;;;;;;;5115204;28;20154;-79
2023/01/19 14:02:30;;;;;;;19.13;1.60;;;;;;;;;;5102875;27;20056;-78
2023/01/19 14:04:56;;;;;;;9.65;1.27;;;;;;;;;;5115955;28;20051;-78
2023/01/19 14:07:25;;;;;;;11.70;1.60;;;;;;;;;;5102987;27;20067;-79
2023/01/19 14:10:01;;;;;;;8.40;1.20;;;;;;;;;;5114799;27;20043;-79
2023/01/19 14:12:27;;;;;;;12.48;1.60;;;;;;;;;;5111145;27;20510;-74
2023/01/19 14:14:53;;;;;;;17.25;2.67;;;;;;;;;;5098801;28;20074;-74
2023/01/19 14:17:24;;;;;;;19.35;2.90;;;;;;;;;;5113980;27;20425;-73
2023/01/19 14:19:50;;;;;;;10.73;2.08;;;;;;;;;;5114099;28;20043;-76
2023/01/19 14:22:16;;;;;;;12.38;2.05;;;;;;;;;;5113145;27;20050;-76
2023/01/19 14:24:43;;;;;;;11.52;2.25;;;;;;;;;;5111908;27;20097;-74
2023/01/19 14:27:35;;;;;;;13.85;2.63;;;;;;;;;;5113577;28;20095;-75
2023/01/19 14:30:13;;;;;;;24.02;2.95;;;;;;;;;;5101127;28;20064;-73
2023/01/19 14:32:46;;;;;;;14.18;2.63;;;;;;;;;;5110364;28;20054;-74
2023/01/19 14:35:14;;;;;;;16.27;4.10;;;;;;;;;;5115187;28;20052;-76
2023/01/19 14:37:48;;;;;;;15.23;4.25;;;;;;;;;;5100698;28;20047;-79
2023/01/19 14:40:14;;;;;;;13.63;3.40;;;;;;;;;;5094931;27;20040;-77
2023/01/19 14:42:44;;;;;;;17.05;3.05;;;;;;;;;;5101634;27;20039;-74
2023/01/19 14:45:16;;;;;;;15.18;2.78;;;;;;;;;;5102006;27;20044;-74
2023/01/19 14:47:43;;;;;;;11.50;2.67;;;;;;;;;;5094495;28;20048;-74
2023/01/19 14:50:23;;;;;;;16.17;2.38;;;;;;;;;;5106324;28;20414;-74